Rockport, Texas
Current Conditions -  °F | °C
As of 12:53 PM on Thursday 18 Dec 2014 (Local Time) from KRKP Reporting Station
Overcast Overcast  
Wind Chill: 76°   Ceiling: 5000
Heat Index: 76°   Visibility: 10mi
Dew Point: 67°   Wind: 9mph
Humidity: 74%   Direction: 160°SSE
Pressure: 30.02"   Gusts: NA
Location:  28.01°N, 97.06°W
Report Text: KRKP 181853Z AUTO 16008KT 10SM FEW018 SCT025 OVC050 24/19 A3002 RMK AO2 SLP166 T02440194
Loading
Personal Weather Stations






























Interactive Weather Map New forecast layout! Learn more

10-Day Weather Forecast

Advertisements
Track Severe Weather on mobile